sensor_id;sensor_type;location;lat;lon;timestamp;P1;durP1;ratioP1;P2;durP2;ratioP2
80987;SDS011;70452;39.386;-3.210;2023-07-02T00:01:49;3.83;;;1.50;;
80987;SDS011;70452;39.386;-3.210;2023-07-02T00:04:15;5.25;;;0.93;;
80987;SDS011;70452;39.386;-3.210;2023-07-02T00:09:25;6.90;;;1.35;;
80987;SDS011;70452;39.386;-3.210;2023-07-02T00:12:04;4.30;;;0.88;;
80987;SDS011;70452;39.386;-3.210;2023-07-02T00:17:49;6.38;;;1.27;;
80987;SDS011;70452;39.386;-3.210;2023-07-02T00:20:28;6.97;;;1.55;;
80987;SDS011;70452;39.386;-3.210;2023-07-02T00:23:07;9.50;;;1.73;;
80987;SDS011;70452;39.386;-3.210;2023-07-02T00:25:48;6.65;;;2.13;;
80987;SDS011;70452;39.386;-3.210;2023-07-02T00:28:13;4.97;;;1.35;;
80987;SDS011;70452;39.386;-3.210;2023-07-02T00:33:38;5.45;;;1.80;;
80987;SDS011;70452;39.386;-3.210;2023-07-02T00:36:14;6.22;;;2.38;;
80987;SDS011;70452;39.386;-3.210;2023-07-02T00:41:26;6.95;;;2.25;;
80987;SDS011;70452;39.386;-3.210;2023-07-02T00:49:59;6.93;;;2.75;;
80987;SDS011;70452;39.386;-3.210;2023-07-02T00:52:35;7.55;;;2.83;;
80987;SDS011;70452;39.386;-3.210;2023-07-02T00:55:14;6.70;;;2.83;;
80987;SDS011;70452;39.386;-3.210;2023-07-02T00:57:50;6.32;;;2.30;;
80987;SDS011;70452;39.386;-3.210;2023-07-02T01:24:43;8.73;;;3.45;;
80987;SDS011;70452;39.386;-3.210;2023-07-02T01:30:39;9.55;;;3.33;;
80987;SDS011;70452;39.386;-3.210;2023-07-02T01:39:26;8.60;;;3.55;;
80987;SDS011;70452;39.386;-3.210;2023-07-02T01:45:20;13.20;;;4.07;;
80987;SDS011;70452;39.386;-3.210;2023-07-02T01:50:41;9.63;;;3.88;;
80987;SDS011;70452;39.386;-3.210;2023-07-02T01:53:21;8.95;;;4.32;;
80987;SDS011;70452;39.386;-3.210;2023-07-02T01:55:56;7.88;;;3.97;;
80987;SDS011;70452;39.386;-3.210;2023-07-02T01:58:40;7.53;;;3.20;;
80987;SDS011;70452;39.386;-3.210;2023-07-02T02:01:06;9.13;;;3.88;;
80987;SDS011;70452;39.386;-3.210;2023-07-02T02:03:44;9.68;;;3.97;;
80987;SDS011;70452;39.386;-3.210;2023-07-02T02:09:09;8.80;;;3.78;;
80987;SDS011;70452;39.386;-3.210;2023-07-02T02:11:39;10.63;;;5.40;;
80987;SDS011;70452;39.386;-3.210;2023-07-02T02:14:24;10.82;;;4.50;;
80987;SDS011;70452;39.386;-3.210;2023-07-02T02:16:57;10.00;;;4.32;;
80987;SDS011;70452;39.386;-3.210;2023-07-02T02:19:24;11.73;;;4.90;;
80987;SDS011;70452;39.386;-3.210;2023-07-02T02:24:57;8.88;;;4.18;;
80987;SDS011;70452;39.386;-3.210;2023-07-02T02:27:29;10.95;;;4.53;;
80987;SDS011;70452;39.386;-3.210;2023-07-02T02:30:07;11.48;;;4.60;;
80987;SDS011;70452;39.386;-3.210;2023-07-02T02:32:37;10.80;;;4.50;;
80987;SDS011;70452;39.386;-3.210;2023-07-02T02:35:21;9.55;;;4.65;;
80987;SDS011;70452;39.386;-3.210;2023-07-02T02:40:56;12.07;;;5.13;;
80987;SDS011;70452;39.386;-3.210;2023-07-02T02:43:21;11.73;;;4.93;;
80987;SDS011;70452;39.386;-3.210;2023-07-02T02:45:51;10.48;;;5.18;;
80987;SDS011;70452;39.386;-3.210;2023-07-02T02:48:39;13.85;;;4.93;;
80987;SDS011;70452;39.386;-3.210;2023-07-02T02:51:04;11.23;;;5.13;;
80987;SDS011;70452;39.386;-3.210;2023-07-02T02:53:33;9.98;;;4.55;;
80987;SDS011;70452;39.386;-3.210;2023-07-02T02:55:58;12.93;;;5.43;;
80987;SDS011;70452;39.386;-3.210;2023-07-02T02:58:24;10.55;;;5.28;;
80987;SDS011;70452;39.386;-3.210;2023-07-02T03:00:50;11.05;;;5.47;;
80987;SDS011;70452;39.386;-3.210;2023-07-02T03:03:16;11.65;;;5.38;;
80987;SDS011;70452;39.386;-3.210;2023-07-02T03:05:50;10.70;;;5.60;;
80987;SDS011;70452;39.386;-3.210;2023-07-02T03:08:17;15.65;;;6.30;;
80987;SDS011;70452;39.386;-3.210;2023-07-02T03:10:48;10.32;;;4.60;;
80987;SDS011;70452;39.386;-3.210;2023-07-02T03:13:13;11.57;;;5.22;;
80987;SDS011;70452;39.386;-3.210;2023-07-02T03:15:39;10.00;;;4.03;;
80987;SDS011;70452;39.386;-3.210;2023-07-02T03:18:04;10.18;;;5.07;;
80987;SDS011;70452;39.386;-3.210;2023-07-02T03:20:30;9.32;;;5.05;;
80987;SDS011;70452;39.386;-3.210;2023-07-02T03:22:56;11.57;;;5.20;;
80987;SDS011;70452;39.386;-3.210;2023-07-02T03:25:35;9.70;;;5.07;;
80987;SDS011;70452;39.386;-3.210;2023-07-02T03:28:02;13.75;;;5.65;;
80987;SDS011;70452;39.386;-3.210;2023-07-02T03:30:27;13.05;;;6.88;;
80987;SDS011;70452;39.386;-3.210;2023-07-02T03:33:01;9.20;;;4.55;;
80987;SDS011;70452;39.386;-3.210;2023-07-02T03:35:27;11.18;;;5.18;;
80987;SDS011;70452;39.386;-3.210;2023-07-02T03:37:52;11.32;;;6.05;;
80987;SDS011;70452;39.386;-3.210;2023-07-02T03:40:24;11.63;;;5.50;;
80987;SDS011;70452;39.386;-3.210;2023-07-02T03:42:56;11.45;;;5.22;;
80987;SDS011;70452;39.386;-3.210;2023-07-02T03:45:23;12.77;;;5.32;;
80987;SDS011;70452;39.386;-3.210;2023-07-02T03:47:50;9.60;;;4.60;;
80987;SDS011;70452;39.386;-3.210;2023-07-02T03:50:21;13.90;;;5.82;;
80987;SDS011;70452;39.386;-3.210;2023-07-02T03:52:49;9.93;;;5.47;;
80987;SDS011;70452;39.386;-3.210;2023-07-02T03:55:23;11.52;;;5.03;;
80987;SDS011;70452;39.386;-3.210;2023-07-02T03:57:50;11.98;;;5.93;;
80987;SDS011;70452;39.386;-3.210;2023-07-02T04:00:22;9.95;;;4.90;;
80987;SDS011;70452;39.386;-3.210;2023-07-02T04:02:52;10.45;;;5.40;;
80987;SDS011;70452;39.386;-3.210;2023-07-02T04:05:18;16.13;;;5.75;;
80987;SDS011;70452;39.386;-3.210;2023-07-02T04:07:45;12.40;;;5.88;;
80987;SDS011;70452;39.386;-3.210;2023-07-02T04:10:11;11.38;;;5.60;;
80987;SDS011;70452;39.386;-3.210;2023-07-02T04:12:42;9.10;;;4.80;;
80987;SDS011;70452;39.386;-3.210;2023-07-02T04:15:11;12.82;;;5.97;;
80987;SDS011;70452;39.386;-3.210;2023-07-02T04:17:41;11.52;;;5.10;;
80987;SDS011;70452;39.386;-3.210;2023-07-02T04:23:07;14.10;;;5.43;;
80987;SDS011;70452;39.386;-3.210;2023-07-02T04:25:35;9.95;;;4.85;;
80987;SDS011;70452;39.386;-3.210;2023-07-02T04:28:05;10.95;;;4.32;;
80987;SDS011;70452;39.386;-3.210;2023-07-02T04:30:34;12.05;;;5.65;;
80987;SDS011;70452;39.386;-3.210;2023-07-02T04:33:17;10.98;;;4.13;;
80987;SDS011;70452;39.386;-3.210;2023-07-02T04:35:54;10.70;;;6.18;;
80987;SDS011;70452;39.386;-3.210;2023-07-02T04:46:26;10.20;;;4.35;;
80987;SDS011;70452;39.386;-3.210;2023-07-02T04:48:53;14.35;;;6.38;;
80987;SDS011;70452;39.386;-3.210;2023-07-02T04:51:23;10.60;;;5.65;;
80987;SDS011;70452;39.386;-3.210;2023-07-02T04:54:07;10.32;;;5.05;;
80987;SDS011;70452;39.386;-3.210;2023-07-02T04:56:33;11.02;;;5.72;;
80987;SDS011;70452;39.386;-3.210;2023-07-02T04:58:58;11.43;;;5.47;;
80987;SDS011;70452;39.386;-3.210;2023-07-02T05:01:24;11.40;;;4.93;;
80987;SDS011;70452;39.386;-3.210;2023-07-02T05:03:49;13.63;;;6.10;;
80987;SDS011;70452;39.386;-3.210;2023-07-02T05:06:15;12.40;;;5.20;;
80987;SDS011;70452;39.386;-3.210;2023-07-02T05:08:40;12.63;;;4.88;;
80987;SDS011;70452;39.386;-3.210;2023-07-02T05:11:06;13.88;;;5.07;;
80987;SDS011;70452;39.386;-3.210;2023-07-02T05:13:31;12.00;;;4.78;;
80987;SDS011;70452;39.386;-3.210;2023-07-02T05:15:57;10.88;;;5.47;;
80987;SDS011;70452;39.386;-3.210;2023-07-02T05:18:22;11.73;;;5.60;;
80987;SDS011;70452;39.386;-3.210;2023-07-02T05:20:47;12.60;;;5.25;;
80987;SDS011;70452;39.386;-3.210;2023-07-02T05:23:13;10.45;;;5.63;;
80987;SDS011;70452;39.386;-3.210;2023-07-02T05:25:38;13.25;;;5.20;;
80987;SDS011;70452;39.386;-3.210;2023-07-02T05:28:04;12.98;;;5.97;;
80987;SDS011;70452;39.386;-3.210;2023-07-02T05:30:30;11.30;;;5.65;;
80987;SDS011;70452;39.386;-3.210;2023-07-02T05:32:55;11.48;;;5.90;;
80987;SDS011;70452;39.386;-3.210;2023-07-02T05:35:21;16.17;;;6.45;;
80987;SDS011;70452;39.386;-3.210;2023-07-02T05:37:46;11.05;;;5.22;;
80987;SDS011;70452;39.386;-3.210;2023-07-02T05:40:12;11.55;;;5.45;;
80987;SDS011;70452;39.386;-3.210;2023-07-02T05:42:37;10.93;;;5.60;;
80987;SDS011;70452;39.386;-3.210;2023-07-02T05:45:03;11.10;;;6.32;;
80987;SDS011;70452;39.386;-3.210;2023-07-02T05:47:29;12.27;;;5.50;;
80987;SDS011;70452;39.386;-3.210;2023-07-02T05:49:54;10.23;;;5.10;;
80987;SDS011;70452;39.386;-3.210;2023-07-02T05:52:19;10.57;;;5.85;;
80987;SDS011;70452;39.386;-3.210;2023-07-02T05:54:45;10.55;;;6.00;;
80987;SDS011;70452;39.386;-3.210;2023-07-02T05:57:15;9.30;;;5.22;;
80987;SDS011;70452;39.386;-3.210;2023-07-02T05:59:41;12.38;;;5.88;;
80987;SDS011;70452;39.386;-3.210;2023-07-02T06:02:07;13.27;;;7.38;;
80987;SDS011;70452;39.386;-3.210;2023-07-02T06:04:38;14.15;;;7.80;;
80987;SDS011;70452;39.386;-3.210;2023-07-02T06:07:04;13.63;;;4.68;;
80987;SDS011;70452;39.386;-3.210;2023-07-02T06:09:41;12.57;;;5.72;;
80987;SDS011;70452;39.386;-3.210;2023-07-02T06:12:18;12.05;;;6.80;;
80987;SDS011;70452;39.386;-3.210;2023-07-02T06:14:45;10.52;;;6.10;;
80987;SDS011;70452;39.386;-3.210;2023-07-02T06:17:12;15.35;;;6.47;;
80987;SDS011;70452;39.386;-3.210;2023-07-02T06:19:37;10.70;;;6.85;;
80987;SDS011;70452;39.386;-3.210;2023-07-02T06:22:09;12.48;;;7.03;;
80987;SDS011;70452;39.386;-3.210;2023-07-02T06:24:37;10.60;;;6.13;;
80987;SDS011;70452;39.386;-3.210;2023-07-02T06:27:03;13.90;;;7.32;;
80987;SDS011;70452;39.386;-3.210;2023-07-02T06:29:29;11.98;;;7.32;;
80987;SDS011;70452;39.386;-3.210;2023-07-02T06:31:57;12.13;;;7.32;;
80987;SDS011;70452;39.386;-3.210;2023-07-02T06:34:25;11.75;;;7.55;;
80987;SDS011;70452;39.386;-3.210;2023-07-02T06:36:51;13.23;;;8.35;;
80987;SDS011;70452;39.386;-3.210;2023-07-02T06:39:18;14.13;;;7.57;;
80987;SDS011;70452;39.386;-3.210;2023-07-02T06:41:44;20.77;;;7.88;;
80987;SDS011;70452;39.386;-3.210;2023-07-02T06:44:12;14.68;;;7.47;;
80987;SDS011;70452;39.386;-3.210;2023-07-02T06:46:37;13.38;;;7.60;;
80987;SDS011;70452;39.386;-3.210;2023-07-02T06:49:06;11.15;;;6.93;;
80987;SDS011;70452;39.386;-3.210;2023-07-02T06:54:31;14.52;;;7.18;;
80987;SDS011;70452;39.386;-3.210;2023-07-02T06:56:58;13.80;;;8.85;;
80987;SDS011;70452;39.386;-3.210;2023-07-02T06:59:24;15.27;;;8.27;;
80987;SDS011;70452;39.386;-3.210;2023-07-02T07:01:51;12.55;;;6.53;;
80987;SDS011;70452;39.386;-3.210;2023-07-02T07:04:19;13.63;;;7.70;;
80987;SDS011;70452;39.386;-3.210;2023-07-02T07:06:46;12.57;;;8.07;;
80987;SDS011;70452;39.386;-3.210;2023-07-02T07:09:11;12.95;;;8.27;;
80987;SDS011;70452;39.386;-3.210;2023-07-02T07:11:37;17.75;;;8.02;;
80987;SDS011;70452;39.386;-3.210;2023-07-02T07:14:03;16.73;;;6.32;;
